sensor_id;sensor_type;location;lat;lon;timestamp;P1;durP1;ratioP1;P2;durP2;ratioP2
20870;SDS011;10595;51.218;3.452;2024-02-28T00:00:13;18.17;;;12.17;;
20870;SDS011;10595;51.218;3.452;2024-02-28T00:02:39;18.87;;;11.77;;
20870;SDS011;10595;51.218;3.452;2024-02-28T00:05:05;15.93;;;11.50;;
20870;SDS011;10595;51.218;3.452;2024-02-28T00:07:31;16.17;;;10.77;;
20870;SDS011;10595;51.218;3.452;2024-02-28T00:09:57;19.37;;;11.43;;
20870;SDS011;10595;51.218;3.452;2024-02-28T00:12:23;22.33;;;11.90;;
20870;SDS011;10595;51.218;3.452;2024-02-28T00:14:50;20.93;;;11.13;;
20870;SDS011;10595;51.218;3.452;2024-02-28T00:17:16;18.87;;;11.30;;
20870;SDS011;10595;51.218;3.452;2024-02-28T00:19:42;22.90;;;11.17;;
20870;SDS011;10595;51.218;3.452;2024-02-28T00:22:09;18.97;;;11.57;;
20870;SDS011;10595;51.218;3.452;2024-02-28T00:24:35;19.43;;;11.47;;
20870;SDS011;10595;51.218;3.452;2024-02-28T00:27:01;18.67;;;11.40;;
20870;SDS011;10595;51.218;3.452;2024-02-28T00:29:27;17.97;;;11.10;;
20870;SDS011;10595;51.218;3.452;2024-02-28T00:31:53;17.43;;;12.03;;
20870;SDS011;10595;51.218;3.452;2024-02-28T00:34:19;20.77;;;10.57;;
20870;SDS011;10595;51.218;3.452;2024-02-28T00:36:45;19.27;;;10.80;;
20870;SDS011;10595;51.218;3.452;2024-02-28T00:39:11;19.27;;;10.07;;
20870;SDS011;10595;51.218;3.452;2024-02-28T00:41:37;21.37;;;10.80;;
20870;SDS011;10595;51.218;3.452;2024-02-28T00:44:03;16.60;;;10.77;;
20870;SDS011;10595;51.218;3.452;2024-02-28T00:46:29;17.77;;;10.17;;
20870;SDS011;10595;51.218;3.452;2024-02-28T00:48:55;19.20;;;9.70;;
20870;SDS011;10595;51.218;3.452;2024-02-28T00:51:21;18.50;;;10.27;;
20870;SDS011;10595;51.218;3.452;2024-02-28T00:53:47;18.30;;;10.87;;
20870;SDS011;10595;51.218;3.452;2024-02-28T00:56:13;16.20;;;10.70;;
20870;SDS011;10595;51.218;3.452;2024-02-28T00:58:39;15.10;;;10.03;;
20870;SDS011;10595;51.218;3.452;2024-02-28T01:01:05;18.70;;;10.33;;
20870;SDS011;10595;51.218;3.452;2024-02-28T01:03:32;15.23;;;9.57;;
20870;SDS011;10595;51.218;3.452;2024-02-28T01:05:58;14.67;;;10.17;;
20870;SDS011;10595;51.218;3.452;2024-02-28T01:08:26;20.60;;;11.07;;
20870;SDS011;10595;51.218;3.452;2024-02-28T01:10:52;18.40;;;10.57;;
20870;SDS011;10595;51.218;3.452;2024-02-28T01:13:18;17.17;;;10.57;;
20870;SDS011;10595;51.218;3.452;2024-02-28T01:15:44;20.60;;;10.40;;
20870;SDS011;10595;51.218;3.452;2024-02-28T01:18:10;16.07;;;9.50;;
20870;SDS011;10595;51.218;3.452;2024-02-28T01:20:36;15.57;;;9.33;;
20870;SDS011;10595;51.218;3.452;2024-02-28T01:23:02;14.93;;;9.90;;
20870;SDS011;10595;51.218;3.452;2024-02-28T01:25:28;21.83;;;10.17;;
20870;SDS011;10595;51.218;3.452;2024-02-28T01:27:55;17.70;;;9.27;;
20870;SDS011;10595;51.218;3.452;2024-02-28T01:30:25;17.63;;;9.60;;
20870;SDS011;10595;51.218;3.452;2024-02-28T01:32:51;16.70;;;9.33;;
20870;SDS011;10595;51.218;3.452;2024-02-28T01:35:17;17.57;;;9.53;;
20870;SDS011;10595;51.218;3.452;2024-02-28T01:37:43;13.30;;;9.57;;
20870;SDS011;10595;51.218;3.452;2024-02-28T01:40:09;18.23;;;10.30;;
20870;SDS011;10595;51.218;3.452;2024-02-28T01:42:35;18.20;;;9.63;;
20870;SDS011;10595;51.218;3.452;2024-02-28T01:45:02;18.03;;;9.70;;
20870;SDS011;10595;51.218;3.452;2024-02-28T01:47:28;16.37;;;9.57;;
20870;SDS011;10595;51.218;3.452;2024-02-28T01:49:54;15.53;;;9.23;;
20870;SDS011;10595;51.218;3.452;2024-02-28T01:52:20;15.87;;;9.40;;
20870;SDS011;10595;51.218;3.452;2024-02-28T01:54:47;17.73;;;9.63;;
20870;SDS011;10595;51.218;3.452;2024-02-28T01:57:13;16.23;;;9.57;;
20870;SDS011;10595;51.218;3.452;2024-02-28T01:59:39;17.10;;;9.33;;
20870;SDS011;10595;51.218;3.452;2024-02-28T02:02:05;15.37;;;9.60;;
20870;SDS011;10595;51.218;3.452;2024-02-28T02:04:31;19.60;;;10.30;;
20870;SDS011;10595;51.218;3.452;2024-02-28T02:06:58;15.03;;;9.20;;
20870;SDS011;10595;51.218;3.452;2024-02-28T02:09:25;17.27;;;9.93;;
20870;SDS011;10595;51.218;3.452;2024-02-28T02:11:51;16.73;;;10.30;;
20870;SDS011;10595;51.218;3.452;2024-02-28T02:14:17;17.33;;;10.10;;
20870;SDS011;10595;51.218;3.452;2024-02-28T02:16:44;17.70;;;10.43;;
20870;SDS011;10595;51.218;3.452;2024-02-28T02:19:10;17.67;;;10.03;;
20870;SDS011;10595;51.218;3.452;2024-02-28T02:21:44;17.80;;;9.80;;
20870;SDS011;10595;51.218;3.452;2024-02-28T02:24:15;15.50;;;10.10;;
20870;SDS011;10595;51.218;3.452;2024-02-28T02:26:41;19.80;;;10.53;;
20870;SDS011;10595;51.218;3.452;2024-02-28T02:29:09;18.20;;;10.60;;
20870;SDS011;10595;51.218;3.452;2024-02-28T02:31:35;18.20;;;10.63;;
20870;SDS011;10595;51.218;3.452;2024-02-28T02:34:01;16.67;;;10.77;;
20870;SDS011;10595;51.218;3.452;2024-02-28T02:36:27;20.13;;;9.97;;
20870;SDS011;10595;51.218;3.452;2024-02-28T02:38:53;20.63;;;10.73;;
20870;SDS011;10595;51.218;3.452;2024-02-28T02:41:19;16.77;;;10.40;;
20870;SDS011;10595;51.218;3.452;2024-02-28T02:43:45;17.27;;;10.63;;
20870;SDS011;10595;51.218;3.452;2024-02-28T02:46:11;19.47;;;11.13;;
20870;SDS011;10595;51.218;3.452;2024-02-28T02:48:37;17.17;;;10.50;;
20870;SDS011;10595;51.218;3.452;2024-02-28T02:51:03;14.10;;;10.13;;
20870;SDS011;10595;51.218;3.452;2024-02-28T02:53:29;17.67;;;10.37;;
20870;SDS011;10595;51.218;3.452;2024-02-28T02:55:55;18.93;;;11.83;;
20870;SDS011;10595;51.218;3.452;2024-02-28T02:58:21;22.27;;;10.37;;
20870;SDS011;10595;51.218;3.452;2024-02-28T03:00:47;23.33;;;11.47;;
20870;SDS011;10595;51.218;3.452;2024-02-28T03:03:14;20.67;;;11.83;;
20870;SDS011;10595;51.218;3.452;2024-02-28T03:05:40;17.53;;;11.23;;
20870;SDS011;10595;51.218;3.452;2024-02-28T03:08:08;18.47;;;11.30;;
20870;SDS011;10595;51.218;3.452;2024-02-28T03:10:34;21.77;;;11.43;;
20870;SDS011;10595;51.218;3.452;2024-02-28T03:13:00;20.57;;;11.30;;
20870;SDS011;10595;51.218;3.452;2024-02-28T03:15:26;19.63;;;11.90;;
20870;SDS011;10595;51.218;3.452;2024-02-28T03:17:52;18.50;;;11.17;;
20870;SDS011;10595;51.218;3.452;2024-02-28T03:20:19;21.93;;;11.87;;
20870;SDS011;10595;51.218;3.452;2024-02-28T03:22:45;20.27;;;11.70;;
20870;SDS011;10595;51.218;3.452;2024-02-28T03:25:11;22.93;;;11.73;;
20870;SDS011;10595;51.218;3.452;2024-02-28T03:27:37;22.37;;;11.73;;
20870;SDS011;10595;51.218;3.452;2024-02-28T03:30:03;18.47;;;11.40;;
20870;SDS011;10595;51.218;3.452;2024-02-28T03:32:29;21.37;;;11.60;;
20870;SDS011;10595;51.218;3.452;2024-02-28T03:34:55;21.37;;;11.70;;
20870;SDS011;10595;51.218;3.452;2024-02-28T03:37:21;23.23;;;11.63;;
20870;SDS011;10595;51.218;3.452;2024-02-28T03:39:47;15.33;;;10.43;;
20870;SDS011;10595;51.218;3.452;2024-02-28T03:42:13;21.23;;;10.97;;
20870;SDS011;10595;51.218;3.452;2024-02-28T03:44:39;17.57;;;10.80;;
20870;SDS011;10595;51.218;3.452;2024-02-28T03:47:05;18.03;;;10.50;;
20870;SDS011;10595;51.218;3.452;2024-02-28T03:49:31;18.17;;;11.10;;
20870;SDS011;10595;51.218;3.452;2024-02-28T03:51:57;16.80;;;11.13;;
20870;SDS011;10595;51.218;3.452;2024-02-28T03:54:23;16.43;;;10.40;;
20870;SDS011;10595;51.218;3.452;2024-02-28T03:56:49;22.17;;;10.67;;
20870;SDS011;10595;51.218;3.452;2024-02-28T03:59:15;20.43;;;11.27;;
20870;SDS011;10595;51.218;3.452;2024-02-28T04:01:41;15.83;;;9.90;;
20870;SDS011;10595;51.218;3.452;2024-02-28T04:04:07;19.03;;;10.63;;
20870;SDS011;10595;51.218;3.452;2024-02-28T04:06:33;19.83;;;10.50;;
20870;SDS011;10595;51.218;3.452;2024-02-28T04:08:59;20.47;;;10.93;;
20870;SDS011;10595;51.218;3.452;2024-02-28T04:11:25;19.27;;;10.90;;
20870;SDS011;10595;51.218;3.452;2024-02-28T04:13:51;17.30;;;11.10;;
20870;SDS011;10595;51.218;3.452;2024-02-28T04:16:17;17.23;;;10.97;;
20870;SDS011;10595;51.218;3.452;2024-02-28T04:18:43;20.30;;;11.30;;
20870;SDS011;10595;51.218;3.452;2024-02-28T04:21:09;17.83;;;10.63;;
20870;SDS011;10595;51.218;3.452;2024-02-28T04:23:35;17.03;;;10.70;;
20870;SDS011;10595;51.218;3.452;2024-02-28T04:26:03;20.10;;;11.03;;
20870;SDS011;10595;51.218;3.452;2024-02-28T04:28:29;18.27;;;10.63;;
20870;SDS011;10595;51.218;3.452;2024-02-28T04:30:55;18.70;;;11.40;;
20870;SDS011;10595;51.218;3.452;2024-02-28T04:33:21;23.03;;;11.87;;
20870;SDS011;10595;51.218;3.452;2024-02-28T04:35:47;17.97;;;11.27;;
20870;SDS011;10595;51.218;3.452;2024-02-28T04:38:13;26.63;;;12.30;;
20870;SDS011;10595;51.218;3.452;2024-02-28T04:40:40;22.60;;;12.30;;
20870;SDS011;10595;51.218;3.452;2024-02-28T04:43:06;21.47;;;12.20;;
20870;SDS011;10595;51.218;3.452;2024-02-28T04:45:32;23.83;;;12.47;;
20870;SDS011;10595;51.218;3.452;2024-02-28T04:47:58;20.67;;;12.13;;
20870;SDS011;10595;51.218;3.452;2024-02-28T04:50:24;22.07;;;12.00;;
20870;SDS011;10595;51.218;3.452;2024-02-28T04:52:50;20.20;;;12.00;;
20870;SDS011;10595;51.218;3.452;2024-02-28T04:55:16;22.63;;;13.07;;
20870;SDS011;10595;51.218;3.452;2024-02-28T04:57:42;20.73;;;12.93;;
20870;SDS011;10595;51.218;3.452;2024-02-28T05:00:08;25.23;;;13.77;;
20870;SDS011;10595;51.218;3.452;2024-02-28T05:02:34;25.60;;;13.97;;
20870;SDS011;10595;51.218;3.452;2024-02-28T05:05:00;25.00;;;13.40;;
20870;SDS011;10595;51.218;3.452;2024-02-28T05:07:26;24.43;;;12.80;;
20870;SDS011;10595;51.218;3.452;2024-02-28T05:09:52;22.37;;;12.80;;
20870;SDS011;10595;51.218;3.452;2024-02-28T05:12:18;26.93;;;14.27;;
20870;SDS011;10595;51.218;3.452;2024-02-28T05:14:44;26.57;;;14.27;;
20870;SDS011;10595;51.218;3.452;2024-02-28T05:17:10;30.87;;;14.40;;
20870;SDS011;10595;51.218;3.452;2024-02-28T05:19:36;29.70;;;13.63;;
20870;SDS011;10595;51.218;3.452;2024-02-28T05:22:02;31.87;;;15.13;;
20870;SDS011;10595;51.218;3.452;2024-02-28T05:24:28;29.83;;;15.20;;
20870;SDS011;10595;51.218;3.452;2024-02-28T05:26:54;31.40;;;14.10;;
20870;SDS011;10595;51.218;3.452;2024-02-28T05:29:20;29.43;;;13.27;;
20870;SDS011;10595;51.218;3.452;2024-02-28T05:31:46;33.27;;;14.67;;
20870;SDS011;10595;51.218;3.452;2024-02-28T05:34:12;33.57;;;14.30;;
20870;SDS011;10595;51.218;3.452;2024-02-28T05:36:40;33.97;;;14.80;;
20870;SDS011;10595;51.218;3.452;2024-02-28T05:39:06;28.07;;;14.27;;
20870;SDS011;10595;51.218;3.452;2024-02-28T05:41:33;31.50;;;15.40;;
20870;SDS011;10595;51.218;3.452;2024-02-28T05:43:59;29.57;;;13.83;;
20870;SDS011;10595;51.218;3.452;2024-02-28T05:46:25;26.47;;;14.10;;
20870;SDS011;10595;51.218;3.452;2024-02-28T05:48:51;35.67;;;15.83;;
20870;SDS011;10595;51.218;3.452;2024-02-28T05:51:17;31.83;;;15.93;;
20870;SDS011;10595;51.218;3.452;2024-02-28T05:53:43;38.97;;;16.77;;
20870;SDS011;10595;51.218;3.452;2024-02-28T05:56:09;38.13;;;16.17;;
20870;SDS011;10595;51.218;3.452;2024-02-28T05:58:43;45.57;;;17.67;;
20870;SDS011;10595;51.218;3.452;2024-02-28T06:01:09;41.57;;;17.13;;
20870;SDS011;10595;51.218;3.452;2024-02-28T06:03:38;37.90;;;16.40;;
20870;SDS011;10595;51.218;3.452;2024-02-28T06:06:04;34.60;;;17.00;;
20870;SDS011;10595;51.218;3.452;2024-02-28T06:08:32;41.13;;;17.63;;
20870;SDS011;10595;51.218;3.452;2024-02-28T06:10:58;41.27;;;16.93;;
20870;SDS011;10595;51.218;3.452;2024-02-28T06:13:24;40.67;;;16.97;;
20870;SDS011;10595;51.218;3.452;2024-02-28T06:15:50;39.23;;;18.43;;
20870;SDS011;10595;51.218;3.452;2024-02-28T06:18:16;35.17;;;17.17;;
20870;SDS011;10595;51.218;3.452;2024-02-28T06:20:42;51.57;;;19.43;;
20870;SDS011;10595;51.218;3.452;2024-02-28T06:23:08;48.83;;;18.83;;
20870;SDS011;10595;51.218;3.452;2024-02-28T06:25:34;43.77;;;18.03;;
20870;SDS011;10595;51.218;3.452;2024-02-28T06:28:01;46.53;;;18.83;;
20870;SDS011;10595;51.218;3.452;2024-02-28T06:30:31;46.07;;;18.30;;
20870;SDS011;10595;51.218;3.452;2024-02-28T06:33:01;41.30;;;18.50;;
20870;SDS011;10595;51.218;3.452;2024-02-28T06:35:28;47.67;;;19.07;;
20870;SDS011;10595;51.218;3.452;2024-02-28T06:37:54;46.20;;;18.97;;
20870;SDS011;10595;51.218;3.452;2024-02-28T06:40:20;44.33;;;19.97;;
20870;SDS011;10595;51.218;3.452;2024-02-28T06:42:46;47.37;;;20.23;;
20870;SDS011;10595;51.218;3.452;2024-02-28T06:45:12;44.37;;;19.50;;
20870;SDS011;10595;51.218;3.452;2024-02-28T06:47:38;52.57;;;19.67;;
20870;SDS011;10595;51.218;3.452;2024-02-28T06:50:05;55.27;;;20.63;;
20870;SDS011;10595;51.218;3.452;2024-02-28T06:52:31;56.87;;;20.10;;
20870;SDS011;10595;51.218;3.452;2024-02-28T06:54:58;54.67;;;21.07;;
20870;SDS011;10595;51.218;3.452;2024-02-28T06:57:25;57.70;;;20.33;;
20870;SDS011;10595;51.218;3.452;2024-02-28T06:59:51;51.83;;;21.03;;
20870;SDS011;10595;51.218;3.452;2024-02-28T07:02:17;50.37;;;19.70;;
20870;SDS011;10595;51.218;3.452;2024-02-28T07:04:43;62.30;;;22.37;;
20870;SDS011;10595;51.218;3.452;2024-02-28T07:07:10;58.40;;;21.37;;
20870;SDS011;10595;51.218;3.452;2024-02-28T07:09:37;51.43;;;21.40;;
20870;SDS011;10595;51.218;3.452;2024-02-28T07:12:03;49.73;;;20.60;;
20870;SDS011;10595;51.218;3.452;2024-02-28T07:14:30;51.77;;;20.30;;
20870;SDS011;10595;51.218;3.452;2024-02-28T07:16:56;59.23;;;20.50;;
20870;SDS011;10595;51.218;3.452;2024-02-28T07:19:22;51.70;;;21.43;;
20870;SDS011;10595;51.218;3.452;2024-02-28T07:21:48;46.00;;;21.13;;
20870;SDS011;10595;51.218;3.452;2024-02-28T07:24:14;53.97;;;20.70;;
20870;SDS011;10595;51.218;3.452;2024-02-28T07:26:40;53.50;;;21.07;;
20870;SDS011;10595;51.218;3.452;2024-02-28T07:29:07;45.20;;;21.00;;
20870;SDS011;10595;51.218;3.452;2024-02-28T07:31:33;45.30;;;20.63;;
20870;SDS011;10595;51.218;3.452;2024-02-28T07:33:59;48.47;;;22.13;;
20870;SDS011;10595;51.218;3.452;2024-02-28T07:36:25;48.97;;;21.50;;
20870;SDS011;10595;51.218;3.452;2024-02-28T07:38:51;46.13;;;20.57;;
20870;SDS011;10595;51.218;3.452;2024-02-28T07:41:17;49.00;;;21.13;;
20870;SDS011;10595;51.218;3.452;2024-02-28T07:43:43;43.43;;;20.53;;
20870;SDS011;10595;51.218;3.452;2024-02-28T07:46:09;49.60;;;20.60;;
20870;SDS011;10595;51.218;3.452;2024-02-28T07:48:36;42.93;;;21.13;;
20870;SDS011;10595;51.218;3.452;2024-02-28T07:51:09;44.63;;;21.00;;
20870;SDS011;10595;51.218;3.452;2024-02-28T07:53:36;34.47;;;19.77;;
20870;SDS011;10595;51.218;3.452;2024-02-28T07:56:02;33.30;;;19.90;;
20870;SDS011;10595;51.218;3.452;2024-02-28T07:58:28;40.73;;;20.20;;
20870;SDS011;10595;51.218;3.452;2024-02-28T08:00:54;39.10;;;21.60;;
20870;SDS011;10595;51.218;3.452;2024-02-28T08:03:20;40.43;;;21.07;;
20870;SDS011;10595;51.218;3.452;2024-02-28T08:05:46;34.83;;;20.07;;
20870;SDS011;10595;51.218;3.452;2024-02-28T08:08:13;38.43;;;20.47;;
20870;SDS011;10595;51.218;3.452;2024-02-28T08:10:40;36.53;;;19.60;;
20870;SDS011;10595;51.218;3.452;2024-02-28T08:13:06;32.60;;;19.40;;
20870;SDS011;10595;51.218;3.452;2024-02-28T08:15:32;36.13;;;18.80;;
20870;SDS011;10595;51.218;3.452;2024-02-28T08:17:58;29.67;;;16.77;;
20870;SDS011;10595;51.218;3.452;2024-02-28T08:20:24;32.10;;;17.90;;
20870;SDS011;10595;51.218;3.452;2024-02-28T08:22:51;34.63;;;17.33;;
20870;SDS011;10595;51.218;3.452;2024-02-28T08:25:18;38.17;;;18.37;;
20870;SDS011;10595;51.218;3.452;2024-02-28T08:27:44;34.03;;;17.90;;
20870;SDS011;10595;51.218;3.452;2024-02-28T08:30:10;35.17;;;18.60;;
20870;SDS011;10595;51.218;3.452;2024-02-28T08:32:36;41.17;;;19.30;;
20870;SDS011;10595;51.218;3.452;2024-02-28T08:35:02;38.80;;;18.20;;
20870;SDS011;10595;51.218;3.452;2024-02-28T08:37:28;40.37;;;17.77;;
20870;SDS011;10595;51.218;3.452;2024-02-28T08:39:54;35.10;;;18.47;;
20870;SDS011;10595;51.218;3.452;2024-02-28T08:42:26;33.03;;;17.43;;
20870;SDS011;10595;51.218;3.452;2024-02-28T08:44:53;35.00;;;17.10;;
20870;SDS011;10595;51.218;3.452;2024-02-28T08:47:23;34.80;;;17.30;;
20870;SDS011;10595;51.218;3.452;2024-02-28T08:49:49;30.10;;;16.50;;
20870;SDS011;10595;51.218;3.452;2024-02-28T08:52:15;35.80;;;17.87;;
20870;SDS011;10595;51.218;3.452;2024-02-28T08:54:41;36.80;;;17.37;;
20870;SDS011;10595;51.218;3.452;2024-02-28T08:57:07;35.73;;;17.63;;
20870;SDS011;10595;51.218;3.452;2024-02-28T08:59:33;29.37;;;15.17;;
20870;SDS011;10595;51.218;3.452;2024-02-28T09:01:59;28.67;;;14.80;;
20870;SDS011;10595;51.218;3.452;2024-02-28T09:04:25;29.97;;;14.30;;
20870;SDS011;10595;51.218;3.452;2024-02-28T09:06:51;28.23;;;14.37;;
20870;SDS011;10595;51.218;3.452;2024-02-28T09:09:20;24.23;;;13.87;;
20870;SDS011;10595;51.218;3.452;2024-02-28T09:11:46;24.77;;;14.07;;
20870;SDS011;10595;51.218;3.452;2024-02-28T09:14:12;26.03;;;13.93;;
20870;SDS011;10595;51.218;3.452;2024-02-28T09:16:38;24.33;;;14.97;;
20870;SDS011;10595;51.218;3.452;2024-02-28T09:19:04;21.63;;;14.70;;
20870;SDS011;10595;51.218;3.452;2024-02-28T09:21:30;23.57;;;14.33;;
20870;SDS011;10595;51.218;3.452;2024-02-28T09:23:56;20.53;;;13.67;;
20870;SDS011;10595;51.218;3.452;2024-02-28T09:26:22;23.17;;;13.77;;
20870;SDS011;10595;51.218;3.452;2024-02-28T09:28:48;18.43;;;12.93;;
20870;SDS011;10595;51.218;3.452;2024-02-28T09:31:14;26.53;;;14.23;;
20870;SDS011;10595;51.218;3.452;2024-02-28T09:33:40;21.07;;;14.43;;
20870;SDS011;10595;51.218;3.452;2024-02-28T09:36:06;27.47;;;15.07;;
20870;SDS011;10595;51.218;3.452;2024-02-28T09:38:32;21.43;;;13.80;;
20870;SDS011;10595;51.218;3.452;2024-02-28T09:41:00;22.70;;;14.13;;
20870;SDS011;10595;51.218;3.452;2024-02-28T09:43:30;27.77;;;14.17;;
20870;SDS011;10595;51.218;3.452;2024-02-28T09:45:57;21.73;;;13.37;;
20870;SDS011;10595;51.218;3.452;2024-02-28T09:48:24;22.60;;;13.57;;
20870;SDS011;10595;51.218;3.452;2024-02-28T09:50:51;20.67;;;13.47;;
20870;SDS011;10595;51.218;3.452;2024-02-28T09:53:17;21.57;;;12.53;;
20870;SDS011;10595;51.218;3.452;2024-02-28T09:55:43;21.80;;;13.47;;
20870;SDS011;10595;51.218;3.452;2024-02-28T09:58:09;19.83;;;12.90;;
20870;SDS011;10595;51.218;3.452;2024-02-28T10:00:36;22.37;;;13.90;;
20870;SDS011;10595;51.218;3.452;2024-02-28T10:03:03;23.70;;;14.20;;
20870;SDS011;10595;51.218;3.452;2024-02-28T10:05:29;19.77;;;14.53;;
20870;SDS011;10595;51.218;3.452;2024-02-28T10:07:55;23.77;;;14.67;;
20870;SDS011;10595;51.218;3.452;2024-02-28T10:10:21;24.03;;;14.83;;
20870;SDS011;10595;51.218;3.452;2024-02-28T10:12:48;24.83;;;14.63;;
20870;SDS011;10595;51.218;3.452;2024-02-28T10:15:14;20.47;;;14.67;;
20870;SDS011;10595;51.218;3.452;2024-02-28T10:17:40;23.53;;;15.30;;
20870;SDS011;10595;51.218;3.452;2024-02-28T10:20:06;20.50;;;14.20;;
20870;SDS011;10595;51.218;3.452;2024-02-28T10:22:34;20.67;;;14.77;;
20870;SDS011;10595;51.218;3.452;2024-02-28T10:25:01;22.73;;;15.53;;
20870;SDS011;10595;51.218;3.452;2024-02-28T10:27:27;21.33;;;14.53;;
20870;SDS011;10595;51.218;3.452;2024-02-28T10:29:53;20.33;;;13.97;;
20870;SDS011;10595;51.218;3.452;2024-02-28T10:32:19;21.83;;;14.50;;
20870;SDS011;10595;51.218;3.452;2024-02-28T10:34:45;23.83;;;14.17;;
20870;SDS011;10595;51.218;3.452;2024-02-28T10:37:12;21.90;;;13.97;;
20870;SDS011;10595;51.218;3.452;2024-02-28T10:39:38;20.23;;;14.27;;
20870;SDS011;10595;51.218;3.452;2024-02-28T10:42:05;21.23;;;15.07;;
20870;SDS011;10595;51.218;3.452;2024-02-28T10:44:31;24.30;;;15.03;;
20870;SDS011;10595;51.218;3.452;2024-02-28T10:46:59;21.87;;;15.77;;
20870;SDS011;10595;51.218;3.452;2024-02-28T10:49:28;25.70;;;16.57;;
20870;SDS011;10595;51.218;3.452;2024-02-28T10:51:55;29.20;;;16.93;;
20870;SDS011;10595;51.218;3.452;2024-02-28T10:54:22;25.83;;;17.17;;
20870;SDS011;10595;51.218;3.452;2024-02-28T10:56:50;23.57;;;17.40;;
20870;SDS011;10595;51.218;3.452;2024-02-28T10:59:17;29.60;;;19.67;;
20870;SDS011;10595;51.218;3.452;2024-02-28T11:01:43;31.57;;;21.33;;
20870;SDS011;10595;51.218;3.452;2024-02-28T11:04:13;29.87;;;20.53;;
20870;SDS011;10595;51.218;3.452;2024-02-28T11:09:20;29.53;;;17.37;;
20870;SDS011;10595;51.218;3.452;2024-02-28T11:11:48;25.23;;;15.90;;
20870;SDS011;10595;51.218;3.452;2024-02-28T11:14:14;22.57;;;15.60;;
20870;SDS011;10595;51.218;3.452;2024-02-28T11:16:41;24.20;;;15.60;;
20870;SDS011;10595;51.218;3.452;2024-02-28T11:19:18;18.50;;;13.80;;
20870;SDS011;10595;51.218;3.452;2024-02-28T11:21:45;23.03;;;14.90;;
20870;SDS011;10595;51.218;3.452;2024-02-28T11:24:12;20.13;;;14.57;;
20870;SDS011;10595;51.218;3.452;2024-02-28T11:26:38;21.03;;;14.00;;
20870;SDS011;10595;51.218;3.452;2024-02-28T11:29:05;23.93;;;14.23;;
20870;SDS011;10595;51.218;3.452;2024-02-28T11:31:32;18.43;;;13.77;;
20870;SDS011;10595;51.218;3.452;2024-02-28T11:33:58;19.03;;;13.20;;
20870;SDS011;10595;51.218;3.452;2024-02-28T11:36:25;21.03;;;14.47;;
20870;SDS011;10595;51.218;3.452;2024-02-28T11:38:51;21.70;;;14.13;;
20870;SDS011;10595;51.218;3.452;2024-02-28T11:41:24;19.83;;;13.83;;
20870;SDS011;10595;51.218;3.452;2024-02-28T11:43:52;23.20;;;14.10;;
20870;SDS011;10595;51.218;3.452;2024-02-28T11:46:18;21.60;;;13.73;;
20870;SDS011;10595;51.218;3.452;2024-02-28T11:48:44;21.43;;;13.97;;
20870;SDS011;10595;51.218;3.452;2024-02-28T11:51:10;20.33;;;13.47;;
20870;SDS011;10595;51.218;3.452;2024-02-28T11:53:36;19.23;;;13.90;;
20870;SDS011;10595;51.218;3.452;2024-02-28T11:56:02;19.47;;;13.70;;
20870;SDS011;10595;51.218;3.452;2024-02-28T11:58:29;17.90;;;12.97;;
20870;SDS011;10595;51.218;3.452;2024-02-28T12:00:55;15.37;;;13.47;;
20870;SDS011;10595;51.218;3.452;2024-02-28T12:03:24;20.50;;;13.53;;
20870;SDS011;10595;51.218;3.452;2024-02-28T12:05:54;17.23;;;13.67;;
20870;SDS011;10595;51.218;3.452;2024-02-28T12:08:20;21.93;;;15.00;;
20870;SDS011;10595;51.218;3.452;2024-02-28T12:10:47;17.77;;;14.40;;
20870;SDS011;10595;51.218;3.452;2024-02-28T12:13:17;18.83;;;14.43;;
20870;SDS011;10595;51.218;3.452;2024-02-28T12:15:43;20.30;;;14.43;;
20870;SDS011;10595;51.218;3.452;2024-02-28T12:18:10;18.67;;;15.03;;
20870;SDS011;10595;51.218;3.452;2024-02-28T12:20:36;20.33;;;14.80;;
20870;SDS011;10595;51.218;3.452;2024-02-28T12:23:03;19.97;;;14.70;;
20870;SDS011;10595;51.218;3.452;2024-02-28T12:25:29;18.87;;;15.20;;
20870;SDS011;10595;51.218;3.452;2024-02-28T12:27:55;18.70;;;14.83;;
20870;SDS011;10595;51.218;3.452;2024-02-28T12:30:21;18.70;;;14.60;;
20870;SDS011;10595;51.218;3.452;2024-02-28T12:32:47;23.07;;;14.63;;
20870;SDS011;10595;51.218;3.452;2024-02-28T12:35:13;23.30;;;14.90;;
20870;SDS011;10595;51.218;3.452;2024-02-28T12:37:39;18.97;;;14.50;;
20870;SDS011;10595;51.218;3.452;2024-02-28T12:40:05;20.40;;;15.10;;
20870;SDS011;10595;51.218;3.452;2024-02-28T12:42:33;22.57;;;14.73;;
20870;SDS011;10595;51.218;3.452;2024-02-28T12:44:59;17.97;;;14.17;;
20870;SDS011;10595;51.218;3.452;2024-02-28T12:47:25;16.97;;;14.10;;
20870;SDS011;10595;51.218;3.452;2024-02-28T12:49:51;18.63;;;14.13;;
20870;SDS011;10595;51.218;3.452;2024-02-28T12:52:17;17.17;;;12.60;;
20870;SDS011;10595;51.218;3.452;2024-02-28T12:54:43;18.67;;;13.43;;
20870;SDS011;10595;51.218;3.452;2024-02-28T12:57:09;18.70;;;12.43;;
20870;SDS011;10595;51.218;3.452;2024-02-28T12:59:38;17.97;;;12.37;;
20870;SDS011;10595;51.218;3.452;2024-02-28T13:02:05;15.77;;;11.63;;
20870;SDS011;10595;51.218;3.452;2024-02-28T13:04:31;17.53;;;11.87;;
20870;SDS011;10595;51.218;3.452;2024-02-28T13:06:57;15.53;;;12.53;;
20870;SDS011;10595;51.218;3.452;2024-02-28T13:09:23;18.75;;;14.20;;
20870;SDS011;10595;51.218;3.452;2024-02-28T13:11:49;17.63;;;12.77;;
20870;SDS011;10595;51.218;3.452;2024-02-28T13:14:15;15.07;;;12.43;;
20870;SDS011;10595;51.218;3.452;2024-02-28T13:16:41;17.77;;;12.07;;
20870;SDS011;10595;51.218;3.452;2024-02-28T13:19:07;17.73;;;12.80;;
20870;SDS011;10595;51.218;3.452;2024-02-28T13:21:33;20.70;;;12.30;;
20870;SDS011;10595;51.218;3.452;2024-02-28T13:24:00;17.47;;;11.53;;
20870;SDS011;10595;51.218;3.452;2024-02-28T13:26:27;13.23;;;10.00;;
20870;SDS011;10595;51.218;3.452;2024-02-28T13:28:53;13.10;;;10.73;;
20870;SDS011;10595;51.218;3.452;2024-02-28T13:31:19;15.60;;;10.57;;
20870;SDS011;10595;51.218;3.452;2024-02-28T13:33:45;13.40;;;10.83;;
20870;SDS011;10595;51.218;3.452;2024-02-28T13:36:13;17.20;;;10.37;;
20870;SDS011;10595;51.218;3.452;2024-02-28T13:38:39;14.07;;;9.77;;
20870;SDS011;10595;51.218;3.452;2024-02-28T13:41:05;14.17;;;9.23;;
20870;SDS011;10595;51.218;3.452;2024-02-28T13:43:31;11.60;;;8.97;;
20870;SDS011;10595;51.218;3.452;2024-02-28T13:45:57;12.70;;;8.47;;
20870;SDS011;10595;51.218;3.452;2024-02-28T13:48:27;12.33;;;7.90;;
20870;SDS011;10595;51.218;3.452;2024-02-28T13:50:58;11.63;;;7.57;;
20870;SDS011;10595;51.218;3.452;2024-02-28T13:53:25;12.23;;;8.10;;
20870;SDS011;10595;51.218;3.452;2024-02-28T13:55:51;13.83;;;8.43;;
20870;SDS011;10595;51.218;3.452;2024-02-28T13:58:17;13.07;;;7.77;;
20870;SDS011;10595;51.218;3.452;2024-02-28T14:00:43;9.33;;;7.67;;
20870;SDS011;10595;51.218;3.452;2024-02-28T14:03:10;11.33;;;7.47;;
20870;SDS011;10595;51.218;3.452;2024-02-28T14:05:36;12.87;;;7.63;;
20870;SDS011;10595;51.218;3.452;2024-02-28T14:08:02;10.60;;;7.40;;
20870;SDS011;10595;51.218;3.452;2024-02-28T14:10:29;8.93;;;6.50;;
20870;SDS011;10595;51.218;3.452;2024-02-28T14:12:55;13.37;;;6.93;;
20870;SDS011;10595;51.218;3.452;2024-02-28T14:15:21;9.37;;;6.97;;
20870;SDS011;10595;51.218;3.452;2024-02-28T14:17:48;10.70;;;6.47;;
20870;SDS011;10595;51.218;3.452;2024-02-28T14:20:14;10.53;;;6.03;;